KCFV/CFV METAR and TAF weather

Enter ICAO airport designator
Station Type Date Time Source
KCFV METAR 2020/01/20 15:52 UTC NOAA

KCFV 201552Z AUTO 05004KT 10SM CLR M06/M12 A3064 RMK AO2 SLP386 T10561117


Station Type Date Time Source
KCFV Decoded METAR 2020/01/20 15:52 UTC NOAA

COFFEYVILLE MUNICIPAL AIRPORT , KS, United States (KCFV) 37-05N 95-34W 225M
Jan 20, 2020 - 10:52 AM EST / 2020.01.20 1552 UTC
Wind: from the NE (050 degrees) at 5 MPH (4 KT):0
Visibility: 10 mile(s):0
Sky conditions: clear
Temperature: 21.9 F (-5.6 C)
Windchill: 15 F (-9 C):1
Dew Point: 10.9 F (-11.7 C)
Relative Humidity: 62%
Pressure (altimeter): 30.64 in. Hg (1037 hPa)
ob: KCFV 201552Z AUTO 05004KT 10SM CLR M06/M12 A3064 RMK AO2 SLP386 T10561117
cycle: 16

Station Type Date Time Source
KCFV TAF UTC NOAA

Error!

Example: see airport list